Weather History for Hereford, TX

Change the Weather History Date:

Wednesday, January 23, 2013

  Actual Average (KAMA) Record (KAMA)
Temperature  
Mean Temperature 48 °F 37 °F  
Max Temperature 71 °F 51 °F 77 °F (1972)
Min Temperature 24 °F 24 °F -4 °F (1966)
Degree Days  
Heating Degree Days 18 28  
Month to date heating degree days 650  
Since 1 July heating degree days 2367  
Cooling Degree Days 0 0  
Month to date cooling degree days 0  
Year to date cooling degree days 0  
Moisture  
Dew Point 19 °F    
Average Humidity 45    
Maximum Humidity 80    
Minimum Humidity 9    
Precipitation  
Precipitation 0.00 in 0.03 in 0.32 in (1921)
Month to date precipitation 0.50  
Year to date precipitation 0.50  
Snow  
Snow 0.00 in 0.20 in 2.20 in (1965)
Month to date snowfall 3.2  
Since 1 July snowfall 9.6  
Snow Depth -    
Sea Level Pressure  
Sea Level Pressure 30.17 in    
Wind  
Wind Speed - (North)    
Max Wind Speed -    
Max Gust Speed -    
Visibility 10 miles    
Events      
T = Trace of Precipitation, MM = Missing Value Source: NWS Daily Summary

Daily Weather History Graph

Daily Weather History Graph

Search for Another Location

Airport:

Trip Planner

Search our weather history database for the weather conditions in past years. The results will help you decide how hot, cold, wet, or windy it might be!

Date:

Astronomy

Jan. 23, 2013 Rise Set
Actual Time 7:53 AM CST 6:09 PM CST
Civil Twilight 7:26 AM CST 6:36 PM CST
Nautical Twilight 6:55 AM CST 7:07 PM CST
Astronomical Twilight 6:25 AM CST 7:37 PM CST
Moon 3:23 PM CST (1/23) 5:04 AM CST (1/23)
Length of Visible Light 11h 10m
Length of Day
10h 16m
Waxing Gibbous, 89% of the Moon is Illuminated
Jan 23
Waxing Gibbous
Jan 26
Full
Feb 3
Last Quarter
Feb 10
New
Feb 17
First Quarter

Hourly Weather History & Observations

Time (CST) Temp. Dew Point Humidity Pressure Visibility Wind Dir Wind Speed Gust Speed Precip Events Conditions
12:15 AM 32.0 °F 19.4 °F 60% 30.17 in 10.0 mi North - - N/A   Clear
12:35 AM 28.4 °F 19.4 °F 69% 30.17 in 10.0 mi North - - N/A   Clear
12:55 AM 28.4 °F 19.4 °F 69% 30.17 in 10.0 mi North - - N/A   Clear
1:15 AM 28.4 °F 19.4 °F 69% 30.17 in 10.0 mi North - - N/A   Clear
1:35 AM 28.4 °F 19.4 °F 69% 30.17 in 10.0 mi North - - N/A   Clear
1:55 AM 26.6 °F 19.4 °F 74% 30.17 in 10.0 mi North - - N/A   Clear
2:15 AM 28.4 °F 21.2 °F 74% 30.17 in 10.0 mi North - - N/A   Clear
2:35 AM 32.0 °F 19.4 °F 60% 30.17 in 10.0 mi North - - N/A   Clear
2:55 AM 30.2 °F 19.4 °F 64% 30.18 in 10.0 mi North - - N/A   Clear
3:15 AM 26.6 °F 17.6 °F 69% 30.18 in 10.0 mi North - - N/A   Clear
3:35 AM 26.6 °F 17.6 °F 69% 30.17 in 10.0 mi North - - N/A   Clear
3:55 AM 26.6 °F 17.6 °F 69% 30.18 in 10.0 mi North - - N/A   Clear
4:15 AM 26.6 °F 17.6 °F 69% 30.17 in 10.0 mi North - - N/A   Clear
4:35 AM 26.6 °F 17.6 °F 69% 30.17 in 10.0 mi North - - N/A   Clear
4:55 AM 28.4 °F 19.4 °F 69% 30.16 in 10.0 mi North - - N/A   Clear
5:15 AM 24.8 °F 17.6 °F 74% 30.17 in 10.0 mi North - - N/A   Clear
5:35 AM 26.6 °F 17.6 °F 69% 30.17 in 10.0 mi North - - N/A   Clear
5:55 AM 26.6 °F 19.4 °F 74% 30.17 in 10.0 mi North - - N/A   Clear
6:15 AM 24.8 °F 17.6 °F 74% 30.17 in 10.0 mi North - - N/A   Clear
6:35 AM 28.4 °F 19.4 °F 69% 30.18 in 10.0 mi North - - N/A   Clear
6:55 AM 26.6 °F 19.4 °F 74% 30.18 in 10.0 mi North - - N/A   Clear
7:15 AM 24.8 °F 19.4 °F 80% 30.18 in 10.0 mi North - - N/A   Clear
7:35 AM 26.6 °F 19.4 °F 74% 30.19 in 10.0 mi North - - N/A   Clear
7:55 AM 26.6 °F 19.4 °F 74% 30.20 in 10.0 mi North - - N/A   Clear
8:15 AM 28.4 °F 19.4 °F 69% 30.21 in 10.0 mi North - - N/A   Clear
8:35 AM 28.4 °F 21.2 °F 74% 30.21 in 10.0 mi North - - N/A   Clear
8:55 AM 32.0 °F 23.0 °F 69% 30.21 in 10.0 mi North - - N/A   Clear
9:15 AM 33.8 °F 23.0 °F 65% 30.22 in 10.0 mi North - - N/A   Clear
9:35 AM 37.4 °F 26.6 °F 65% 30.23 in 10.0 mi North - - N/A   Clear
9:55 AM 42.8 °F 26.6 °F 53% 30.23 in 10.0 mi North - - N/A   Clear
10:15 AM 46.4 °F 26.6 °F 46% 30.23 in 10.0 mi North - - N/A   Clear
10:35 AM 50.0 °F 26.6 °F 40% 30.24 in 10.0 mi North - - N/A   Clear
10:55 AM 53.6 °F 26.6 °F 35% 30.24 in 10.0 mi North - - N/A   Clear
11:15 AM 55.4 °F 26.6 °F 33% 30.24 in 10.0 mi North - - N/A   Clear
11:35 AM 57.2 °F 24.8 °F 29% 30.24 in 10.0 mi North - - N/A   Clear
11:55 AM 59.0 °F 23.0 °F 25% 30.23 in 10.0 mi North - - N/A   Clear
12:15 PM 60.8 °F 19.4 °F 20% 30.22 in 10.0 mi North - - N/A   Clear
12:35 PM 62.6 °F 21.2 °F 20% 30.20 in 10.0 mi North - - N/A   Clear
12:55 PM 64.4 °F 19.4 °F 18% 30.19 in 10.0 mi North - - N/A   Clear
1:15 PM 66.2 °F 17.6 °F 15% 30.18 in 10.0 mi North - - N/A   Clear
1:35 PM 68.0 °F 17.6 °F 15% 30.17 in 10.0 mi North - - N/A   Clear
1:55 PM 68.0 °F 17.6 °F 15% 30.16 in 10.0 mi North - - N/A   Clear
2:15 PM 68.0 °F 15.8 °F 13% 30.15 in 10.0 mi North - - N/A   Clear
2:35 PM 69.8 °F 14.0 °F 12% 30.15 in 10.0 mi North - - N/A   Clear
2:55 PM 69.8 °F 14.0 °F 12% 30.14 in 10.0 mi North - - N/A   Clear
3:15 PM 71.6 °F 14.0 °F 11% 30.14 in 10.0 mi North - - N/A   Clear
3:35 PM 71.6 °F 10.4 °F 9% 30.13 in 10.0 mi North - - N/A   Clear
3:55 PM 71.6 °F 10.4 °F 9% 30.13 in 10.0 mi North - - N/A   Clear
4:15 PM 71.6 °F 10.4 °F 9% 30.13 in 10.0 mi North - - N/A   Clear
4:35 PM 71.6 °F 10.4 °F 9% 30.13 in 10.0 mi North - - N/A   Clear
4:55 PM 71.6 °F 12.2 °F 10% 30.13 in 10.0 mi North - - N/A   Clear
5:15 PM 69.8 °F 14.0 °F 12% 30.13 in 10.0 mi North - - N/A   Clear
5:35 PM 68.0 °F 14.0 °F 12% 30.14 in 10.0 mi North - - N/A   Clear
5:55 PM 64.4 °F 14.0 °F 14% 30.14 in 10.0 mi North - - N/A   Clear
6:15 PM 62.6 °F 14.0 °F 15% 30.14 in 10.0 mi North - - N/A   Clear
6:35 PM 57.2 °F 15.8 °F 20% 30.15 in 10.0 mi North - - N/A   Clear
6:55 PM 55.4 °F 17.6 °F 23% 30.15 in 10.0 mi North - - N/A   Clear
7:15 PM 53.6 °F 17.6 °F 24% 30.15 in 10.0 mi North - - N/A   Clear
7:35 PM 50.0 °F 19.4 °F 30% 30.15 in 10.0 mi North - - N/A   Clear
7:55 PM 44.6 °F 19.4 °F 37% 30.15 in 10.0 mi North - - N/A   Clear
8:15 PM 46.4 °F 19.4 °F 34% 30.14 in 10.0 mi North - - N/A   Clear
8:35 PM 41.0 °F 19.4 °F 42% 30.14 in 10.0 mi North - - N/A   Clear
8:55 PM 41.0 °F 19.4 °F 42% 30.14 in 10.0 mi North - - N/A   Clear
9:15 PM 35.6 °F 17.6 °F 48% 30.14 in 10.0 mi North - - N/A   Clear
9:35 PM 32.0 °F 17.6 °F 55% 30.15 in 10.0 mi North - - N/A   Clear
9:55 PM 33.8 °F 17.6 °F 52% 30.15 in 10.0 mi North - - N/A   Clear
10:15 PM 33.8 °F 17.6 °F 52% 30.15 in 10.0 mi North - - N/A   Clear
10:35 PM 33.8 °F 17.6 °F 52% 30.15 in 10.0 mi North - - N/A   Clear
10:55 PM 33.8 °F 17.6 °F 52% 30.15 in 10.0 mi North - - N/A   Clear
11:15 PM 35.6 °F 17.6 °F 48% 30.15 in 10.0 mi North - - N/A   Clear
11:35 PM 35.6 °F 17.6 °F 48% 30.14 in 10.0 mi North - - N/A   Clear
11:55 PM 32.0 °F 17.6 °F 55% 30.14 in 10.0 mi North - - N/A   Clear